sensor_id;sensor_type;location;lat;lon;timestamp;temperature;humidity
73780;SHT30;62093;37.614;15.072;2023-02-22T00:00:50;15.16;60.98
73780;SHT30;62093;37.614;15.072;2023-02-22T00:03:26;15.16;60.99
73780;SHT30;62093;37.614;15.072;2023-02-22T00:05:57;15.16;60.87
73780;SHT30;62093;37.614;15.072;2023-02-22T00:08:29;15.16;60.86
73780;SHT30;62093;37.614;15.072;2023-02-22T00:11:01;15.14;61.09
73780;SHT30;62093;37.614;15.072;2023-02-22T00:13:28;15.12;60.95
73780;SHT30;62093;37.614;15.072;2023-02-22T00:15:55;15.13;61.10
73780;SHT30;62093;37.614;15.072;2023-02-22T00:18:21;15.12;61.11
73780;SHT30;62093;37.614;15.072;2023-02-22T00:20:47;15.12;61.01
73780;SHT30;62093;37.614;15.072;2023-02-22T00:23:19;15.13;60.73
73780;SHT30;62093;37.614;15.072;2023-02-22T00:25:46;15.12;60.91
73780;SHT30;62093;37.614;15.072;2023-02-22T00:28:12;15.12;60.99
73780;SHT30;62093;37.614;15.072;2023-02-22T00:30:40;15.12;60.98
73780;SHT30;62093;37.614;15.072;2023-02-22T00:33:10;15.07;60.87
73780;SHT30;62093;37.614;15.072;2023-02-22T00:35:38;15.06;60.89
73780;SHT30;62093;37.614;15.072;2023-02-22T00:38:04;15.12;61.09
73780;SHT30;62093;37.614;15.072;2023-02-22T00:40:33;15.09;61.01
73780;SHT30;62093;37.614;15.072;2023-02-22T00:43:02;15.09;60.92
73780;SHT30;62093;37.614;15.072;2023-02-22T00:45:30;15.10;60.97
73780;SHT30;62093;37.614;15.072;2023-02-22T00:47:57;15.07;60.90
73780;SHT30;62093;37.614;15.072;2023-02-22T00:50:25;15.06;60.88
73780;SHT30;62093;37.614;15.072;2023-02-22T00:52:52;15.07;60.93
73780;SHT30;62093;37.614;15.072;2023-02-22T00:55:24;15.03;61.10
73780;SHT30;62093;37.614;15.072;2023-02-22T00:57:51;15.04;61.10
73780;SHT30;62093;37.614;15.072;2023-02-22T01:00:25;15.06;61.01
73780;SHT30;62093;37.614;15.072;2023-02-22T01:02:51;15.09;61.07
73780;SHT30;62093;37.614;15.072;2023-02-22T01:05:19;15.04;61.04
73780;SHT30;62093;37.614;15.072;2023-02-22T01:07:46;15.04;61.01
73780;SHT30;62093;37.614;15.072;2023-02-22T01:10:17;15.03;61.03
73780;SHT30;62093;37.614;15.072;2023-02-22T01:12:47;15.02;61.10
73780;SHT30;62093;37.614;15.072;2023-02-22T01:15:17;15.00;61.07
73780;SHT30;62093;37.614;15.072;2023-02-22T01:17:47;15.00;61.11
73780;SHT30;62093;37.614;15.072;2023-02-22T01:20:14;15.00;61.08
73780;SHT30;62093;37.614;15.072;2023-02-22T01:22:43;15.00;61.09
73780;SHT30;62093;37.614;15.072;2023-02-22T01:25:10;14.96;61.14
73780;SHT30;62093;37.614;15.072;2023-02-22T01:27:37;14.96;61.22
73780;SHT30;62093;37.614;15.072;2023-02-22T01:30:05;14.99;61.22
73780;SHT30;62093;37.614;15.072;2023-02-22T01:32:39;14.93;61.18
73780;SHT30;62093;37.614;15.072;2023-02-22T01:35:09;14.96;61.21
73780;SHT30;62093;37.614;15.072;2023-02-22T01:37:37;14.96;61.20
73780;SHT30;62093;37.614;15.072;2023-02-22T01:40:05;14.96;61.15
73780;SHT30;62093;37.614;15.072;2023-02-22T01:42:32;14.95;61.25
73780;SHT30;62093;37.614;15.072;2023-02-22T01:48:15;14.93;61.15
73780;SHT30;62093;37.614;15.072;2023-02-22T01:50:56;14.93;61.23
73780;SHT30;62093;37.614;15.072;2023-02-22T01:53:28;14.93;60.96
73780;SHT30;62093;37.614;15.072;2023-02-22T01:55:55;14.92;61.14
73780;SHT30;62093;37.614;15.072;2023-02-22T01:58:23;14.93;61.17
73780;SHT30;62093;37.614;15.072;2023-02-22T02:00:50;14.91;61.23
73780;SHT30;62093;37.614;15.072;2023-02-22T02:03:21;14.88;61.24
73780;SHT30;62093;37.614;15.072;2023-02-22T02:05:50;14.88;61.22
73780;SHT30;62093;37.614;15.072;2023-02-22T02:08:26;14.89;61.36
73780;SHT30;62093;37.614;15.072;2023-02-22T02:10:54;14.88;61.21
73780;SHT30;62093;37.614;15.072;2023-02-22T02:13:21;14.89;61.19
73780;SHT30;62093;37.614;15.072;2023-02-22T02:15:47;14.89;61.20
73780;SHT30;62093;37.614;15.072;2023-02-22T02:18:14;14.85;61.16
73780;SHT30;62093;37.614;15.072;2023-02-22T02:26:40;14.88;61.19
73780;SHT30;62093;37.614;15.072;2023-02-22T02:29:43;14.85;61.30
73780;SHT30;62093;37.614;15.072;2023-02-22T02:38:07;14.88;61.38
73780;SHT30;62093;37.614;15.072;2023-02-22T02:40:42;14.83;61.28
73780;SHT30;62093;37.614;15.072;2023-02-22T02:45:44;14.82;61.46
73780;SHT30;62093;37.614;15.072;2023-02-22T02:48:14;14.82;61.44
73780;SHT30;62093;37.614;15.072;2023-02-22T02:50:44;14.83;61.46
73780;SHT30;62093;37.614;15.072;2023-02-22T02:53:13;14.82;61.43
73780;SHT30;62093;37.614;15.072;2023-02-22T02:55:42;14.83;61.63
73780;SHT30;62093;37.614;15.072;2023-02-22T02:58:19;14.82;61.48
73780;SHT30;62093;37.614;15.072;2023-02-22T03:00:45;14.82;61.59
73780;SHT30;62093;37.614;15.072;2023-02-22T03:14:45;14.78;61.54
73780;SHT30;62093;37.614;15.072;2023-02-22T03:20:03;14.79;61.55
73780;SHT30;62093;37.614;15.072;2023-02-22T03:23:06;14.76;61.44
73780;SHT30;62093;37.614;15.072;2023-02-22T03:25:40;14.76;61.48
73780;SHT30;62093;37.614;15.072;2023-02-22T03:28:10;14.76;61.60
73780;SHT30;62093;37.614;15.072;2023-02-22T03:31:00;14.72;61.51
73780;SHT30;62093;37.614;15.072;2023-02-22T03:33:49;14.72;61.44
73780;SHT30;62093;37.614;15.072;2023-02-22T03:36:19;14.71;61.51
73780;SHT30;62093;37.614;15.072;2023-02-22T03:38:47;14.73;61.34
73780;SHT30;62093;37.614;15.072;2023-02-22T03:41:17;14.68;61.47
73780;SHT30;62093;37.614;15.072;2023-02-22T03:43:48;14.71;61.52
73780;SHT30;62093;37.614;15.072;2023-02-22T03:46:16;14.68;61.52
73780;SHT30;62093;37.614;15.072;2023-02-22T03:51:47;14.71;61.45
73780;SHT30;62093;37.614;15.072;2023-02-22T03:54:14;14.71;61.56
73780;SHT30;62093;37.614;15.072;2023-02-22T03:56:51;14.69;61.38
73780;SHT30;62093;37.614;15.072;2023-02-22T03:59:21;14.68;61.49
73780;SHT30;62093;37.614;15.072;2023-02-22T04:01:55;14.72;61.34
73780;SHT30;62093;37.614;15.072;2023-02-22T04:04:22;14.68;61.40
73780;SHT30;62093;37.614;15.072;2023-02-22T04:06:52;14.67;61.47
73780;SHT30;62093;37.614;15.072;2023-02-22T04:09:18;14.65;61.49
73780;SHT30;62093;37.614;15.072;2023-02-22T04:11:45;14.68;61.54
73780;SHT30;62093;37.614;15.072;2023-02-22T04:14:11;14.67;61.44
73780;SHT30;62093;37.614;15.072;2023-02-22T04:16:38;14.69;61.57
73780;SHT30;62093;37.614;15.072;2023-02-22T04:19:07;14.67;61.53
73780;SHT30;62093;37.614;15.072;2023-02-22T04:21:35;14.64;61.49
73780;SHT30;62093;37.614;15.072;2023-02-22T04:24:02;14.67;61.56
73780;SHT30;62093;37.614;15.072;2023-02-22T04:26:28;14.67;61.56
73780;SHT30;62093;37.614;15.072;2023-02-22T04:28:57;14.67;61.59
73780;SHT30;62093;37.614;15.072;2023-02-22T04:31:26;14.64;61.50
73780;SHT30;62093;37.614;15.072;2023-02-22T04:33:54;14.64;61.55
73780;SHT30;62093;37.614;15.072;2023-02-22T04:36:25;14.65;61.61
73780;SHT30;62093;37.614;15.072;2023-02-22T04:38:52;14.65;61.62
73780;SHT30;62093;37.614;15.072;2023-02-22T04:41:18;14.61;61.64
73780;SHT30;62093;37.614;15.072;2023-02-22T04:43:45;14.62;61.80
73780;SHT30;62093;37.614;15.072;2023-02-22T04:46:17;14.61;61.42
73780;SHT30;62093;37.614;15.072;2023-02-22T04:48:43;14.59;61.79
73780;SHT30;62093;37.614;15.072;2023-02-22T04:51:10;14.58;61.59
73780;SHT30;62093;37.614;15.072;2023-02-22T04:53:39;14.61;61.49
73780;SHT30;62093;37.614;15.072;2023-02-22T04:56:06;14.57;61.55
73780;SHT30;62093;37.614;15.072;2023-02-22T04:58:32;14.57;61.62
73780;SHT30;62093;37.614;15.072;2023-02-22T05:00:59;14.58;61.56
73780;SHT30;62093;37.614;15.072;2023-02-22T05:03:25;14.59;61.52
73780;SHT30;62093;37.614;15.072;2023-02-22T05:05:51;14.55;61.56
73780;SHT30;62093;37.614;15.072;2023-02-22T05:08:18;14.58;61.65
73780;SHT30;62093;37.614;15.072;2023-02-22T05:10:43;14.58;61.41
73780;SHT30;62093;37.614;15.072;2023-02-22T05:13:09;14.59;62.00
73780;SHT30;62093;37.614;15.072;2023-02-22T05:15:35;14.54;61.94
73780;SHT30;62093;37.614;15.072;2023-02-22T05:18:02;14.54;61.83
73780;SHT30;62093;37.614;15.072;2023-02-22T05:20:29;14.55;62.13
73780;SHT30;62093;37.614;15.072;2023-02-22T05:22:56;14.57;61.99
73780;SHT30;62093;37.614;15.072;2023-02-22T05:25:23;14.54;62.07
73780;SHT30;62093;37.614;15.072;2023-02-22T05:27:55;14.52;62.11
73780;SHT30;62093;37.614;15.072;2023-02-22T05:30:27;14.52;62.16
73780;SHT30;62093;37.614;15.072;2023-02-22T05:32:53;14.52;62.21
73780;SHT30;62093;37.614;15.072;2023-02-22T05:35:20;14.52;62.21
73780;SHT30;62093;37.614;15.072;2023-02-22T05:37:46;14.49;61.98
73780;SHT30;62093;37.614;15.072;2023-02-22T05:40:13;14.46;62.06
73780;SHT30;62093;37.614;15.072;2023-02-22T05:42:40;14.54;62.09
73780;SHT30;62093;37.614;15.072;2023-02-22T05:45:06;14.54;62.10
73780;SHT30;62093;37.614;15.072;2023-02-22T05:47:32;14.49;62.12
73780;SHT30;62093;37.614;15.072;2023-02-22T05:49:59;14.49;62.27
73780;SHT30;62093;37.614;15.072;2023-02-22T05:52:27;14.52;62.20
73780;SHT30;62093;37.614;15.072;2023-02-22T05:54:52;14.52;62.00
73780;SHT30;62093;37.614;15.072;2023-02-22T05:57:18;14.54;62.10
73780;SHT30;62093;37.614;15.072;2023-02-22T05:59:45;14.49;62.19
73780;SHT30;62093;37.614;15.072;2023-02-22T06:02:11;14.48;62.16
73780;SHT30;62093;37.614;15.072;2023-02-22T06:04:37;14.49;62.23
73780;SHT30;62093;37.614;15.072;2023-02-22T06:07:02;14.49;62.17
73780;SHT30;62093;37.614;15.072;2023-02-22T06:09:28;14.49;62.07
73780;SHT30;62093;37.614;15.072;2023-02-22T06:11:54;14.46;62.36
73780;SHT30;62093;37.614;15.072;2023-02-22T06:14:20;14.48;62.17
73780;SHT30;62093;37.614;15.072;2023-02-22T06:16:54;14.51;61.90
73780;SHT30;62093;37.614;15.072;2023-02-22T06:19:21;14.49;61.06
73780;SHT30;62093;37.614;15.072;2023-02-22T06:21:51;14.51;60.65
73780;SHT30;62093;37.614;15.072;2023-02-22T06:24:17;14.52;60.82
73780;SHT30;62093;37.614;15.072;2023-02-22T06:26:43;14.55;60.74
73780;SHT30;62093;37.614;15.072;2023-02-22T06:29:09;14.55;60.73
73780;SHT30;62093;37.614;15.072;2023-02-22T06:31:35;14.55;60.96
73780;SHT30;62093;37.614;15.072;2023-02-22T06:34:01;14.57;60.98
73780;SHT30;62093;37.614;15.072;2023-02-22T06:36:28;14.58;61.05
73780;SHT30;62093;37.614;15.072;2023-02-22T06:38:57;14.58;61.29
73780;SHT30;62093;37.614;15.072;2023-02-22T06:41:22;14.58;61.39
73780;SHT30;62093;37.614;15.072;2023-02-22T06:43:49;14.57;61.75
73780;SHT30;62093;37.614;15.072;2023-02-22T06:46:15;14.58;61.81
73780;SHT30;62093;37.614;15.072;2023-02-22T06:48:41;14.57;61.76
73780;SHT30;62093;37.614;15.072;2023-02-22T06:51:08;14.55;61.95
73780;SHT30;62093;37.614;15.072;2023-02-22T06:53:34;14.57;62.01
73780;SHT30;62093;37.614;15.072;2023-02-22T06:56:01;14.59;62.23
73780;SHT30;62093;37.614;15.072;2023-02-22T06:58:27;14.65;62.17
73780;SHT30;62093;37.614;15.072;2023-02-22T07:00:53;14.59;62.08
73780;SHT30;62093;37.614;15.072;2023-02-22T07:03:19;14.59;62.13
73780;SHT30;62093;37.614;15.072;2023-02-22T07:05:45;14.64;62.21
73780;SHT30;62093;37.614;15.072;2023-02-22T07:08:12;14.62;62.03
73780;SHT30;62093;37.614;15.072;2023-02-22T07:10:38;14.65;62.10
73780;SHT30;62093;37.614;15.072;2023-02-22T07:13:06;14.69;62.25
73780;SHT30;62093;37.614;15.072;2023-02-22T07:15:33;14.68;62.21
73780;SHT30;62093;37.614;15.072;2023-02-22T07:17:59;14.69;62.21
73780;SHT30;62093;37.614;15.072;2023-02-22T07:20:26;14.68;62.32
73780;SHT30;62093;37.614;15.072;2023-02-22T07:22:53;14.68;62.19
73780;SHT30;62093;37.614;15.072;2023-02-22T07:25:19;14.69;62.21
73780;SHT30;62093;37.614;15.072;2023-02-22T07:27:46;14.75;62.08
73780;SHT30;62093;37.614;15.072;2023-02-22T07:30:26;14.71;62.24
73780;SHT30;62093;37.614;15.072;2023-02-22T07:32:57;14.75;62.42
73780;SHT30;62093;37.614;15.072;2023-02-22T07:35:27;14.76;62.45
73780;SHT30;62093;37.614;15.072;2023-02-22T07:37:54;14.75;62.48
73780;SHT30;62093;37.614;15.072;2023-02-22T07:40:20;14.82;62.83
73780;SHT30;62093;37.614;15.072;2023-02-22T07:43:01;14.82;62.82
73780;SHT30;62093;37.614;15.072;2023-02-22T07:45:29;14.83;62.76
73780;SHT30;62093;37.614;15.072;2023-02-22T07:47:56;14.82;62.64
73780;SHT30;62093;37.614;15.072;2023-02-22T07:50:23;14.81;62.65
73780;SHT30;62093;37.614;15.072;2023-02-22T07:52:52;14.82;62.48
73780;SHT30;62093;37.614;15.072;2023-02-22T07:55:21;14.82;62.62
73780;SHT30;62093;37.614;15.072;2023-02-22T07:57:48;14.83;62.68
73780;SHT30;62093;37.614;15.072;2023-02-22T08:00:20;14.85;62.65
73780;SHT30;62093;37.614;15.072;2023-02-22T08:02:48;14.83;62.52
73780;SHT30;62093;37.614;15.072;2023-02-22T08:05:14;14.83;62.47
73780;SHT30;62093;37.614;15.072;2023-02-22T08:07:40;14.86;62.63
73780;SHT30;62093;37.614;15.072;2023-02-22T08:10:08;14.86;62.46
73780;SHT30;62093;37.614;15.072;2023-02-22T08:12:35;14.89;62.50
73780;SHT30;62093;37.614;15.072;2023-02-22T08:15:04;14.88;62.52
73780;SHT30;62093;37.614;15.072;2023-02-22T08:17:30;14.88;62.53
73780;SHT30;62093;37.614;15.072;2023-02-22T08:19:56;14.89;62.45
73780;SHT30;62093;37.614;15.072;2023-02-22T08:22:22;14.93;62.62
73780;SHT30;62093;37.614;15.072;2023-02-22T08:24:49;14.91;62.49
73780;SHT30;62093;37.614;15.072;2023-02-22T08:27:23;14.92;62.50
73780;SHT30;62093;37.614;15.072;2023-02-22T08:29:50;14.93;62.49
73780;SHT30;62093;37.614;15.072;2023-02-22T08:32:16;14.92;62.46
73780;SHT30;62093;37.614;15.072;2023-02-22T08:34:43;14.95;62.46
73780;SHT30;62093;37.614;15.072;2023-02-22T08:37:10;14.96;62.43
73780;SHT30;62093;37.614;15.072;2023-02-22T08:39:36;14.96;62.42
73780;SHT30;62093;37.614;15.072;2023-02-22T08:42:02;14.99;62.39
73780;SHT30;62093;37.614;15.072;2023-02-22T08:44:28;14.98;62.45
73780;SHT30;62093;37.614;15.072;2023-02-22T08:46:53;14.99;62.41
73780;SHT30;62093;37.614;15.072;2023-02-22T08:49:20;14.98;62.40
73780;SHT30;62093;37.614;15.072;2023-02-22T08:51:47;15.00;62.46
73780;SHT30;62093;37.614;15.072;2023-02-22T08:54:13;15.02;62.36
73780;SHT30;62093;37.614;15.072;2023-02-22T08:56:39;15.03;62.29
73780;SHT30;62093;37.614;15.072;2023-02-22T08:59:04;15.03;62.28
73780;SHT30;62093;37.614;15.072;2023-02-22T09:01:30;15.03;62.28
73780;SHT30;62093;37.614;15.072;2023-02-22T09:03:57;15.03;62.33
73780;SHT30;62093;37.614;15.072;2023-02-22T09:06:24;15.03;62.34
73780;SHT30;62093;37.614;15.072;2023-02-22T09:08:50;15.04;62.25
73780;SHT30;62093;37.614;15.072;2023-02-22T09:11:16;15.09;62.30
73780;SHT30;62093;37.614;15.072;2023-02-22T09:13:43;15.09;62.25
73780;SHT30;62093;37.614;15.072;2023-02-22T09:16:09;15.13;62.08
73780;SHT30;62093;37.614;15.072;2023-02-22T09:18:35;15.13;62.11
73780;SHT30;62093;37.614;15.072;2023-02-22T09:21:02;15.14;62.01
73780;SHT30;62093;37.614;15.072;2023-02-22T09:23:28;15.14;61.99
73780;SHT30;62093;37.614;15.072;2023-02-22T09:25:54;15.16;61.94
73780;SHT30;62093;37.614;15.072;2023-02-22T09:28:20;15.14;62.00
73780;SHT30;62093;37.614;15.072;2023-02-22T09:30:46;15.18;61.97
73780;SHT30;62093;37.614;15.072;2023-02-22T09:33:17;15.19;61.84
73780;SHT30;62093;37.614;15.072;2023-02-22T09:35:46;15.18;61.83
73780;SHT30;62093;37.614;15.072;2023-02-22T09:38:15;15.20;61.79
73780;SHT30;62093;37.614;15.072;2023-02-22T09:46:38;15.22;61.84
73780;SHT30;62093;37.614;15.072;2023-02-22T09:51:54;15.24;61.71
73780;SHT30;62093;37.614;15.072;2023-02-22T09:54:28;15.24;61.62
73780;SHT30;62093;37.614;15.072;2023-02-22T09:56:57;15.27;61.63
73780;SHT30;62093;37.614;15.072;2023-02-22T09:59:36;15.27;61.70
73780;SHT30;62093;37.614;15.072;2023-02-22T10:02:17;15.27;61.72
73780;SHT30;62093;37.614;15.072;2023-02-22T10:05:04;15.29;61.57
73780;SHT30;62093;37.614;15.072;2023-02-22T10:08:04;15.31;61.57
73780;SHT30;62093;37.614;15.072;2023-02-22T10:10:35;15.30;61.45
73780;SHT30;62093;37.614;15.072;2023-02-22T10:13:38;15.30;61.39
73780;SHT30;62093;37.614;15.072;2023-02-22T10:16:23;15.34;61.33
73780;SHT30;62093;37.614;15.072;2023-02-22T10:25:05;15.37;61.20
73780;SHT30;62093;37.614;15.072;2023-02-22T10:27:51;15.39;61.28
73780;SHT30;62093;37.614;15.072;2023-02-22T10:30:22;15.41;61.21
73780;SHT30;62093;37.614;15.072;2023-02-22T10:33:09;15.41;61.18
73780;SHT30;62093;37.614;15.072;2023-02-22T10:35:38;15.43;61.16
73780;SHT30;62093;37.614;15.072;2023-02-22T10:38:22;15.44;61.26
73780;SHT30;62093;37.614;15.072;2023-02-22T10:41:02;15.43;61.21
73780;SHT30;62093;37.614;15.072;2023-02-22T10:43:29;15.44;61.12
73780;SHT30;62093;37.614;15.072;2023-02-22T10:45:59;15.46;61.10
73780;SHT30;62093;37.614;15.072;2023-02-22T10:48:27;15.46;61.16
73780;SHT30;62093;37.614;15.072;2023-02-22T10:50:59;15.46;61.06
73780;SHT30;62093;37.614;15.072;2023-02-22T10:53:27;15.49;61.08
73780;SHT30;62093;37.614;15.072;2023-02-22T10:56:18;15.49;61.05
73780;SHT30;62093;37.614;15.072;2023-02-22T10:58:53;15.49;60.93
73780;SHT30;62093;37.614;15.072;2023-02-22T11:06:22;15.53;60.96
73780;SHT30;62093;37.614;15.072;2023-02-22T11:08:48;15.55;60.78
73780;SHT30;62093;37.614;15.072;2023-02-22T11:11:25;15.55;60.86
73780;SHT30;62093;37.614;15.072;2023-02-22T11:13:56;15.55;60.88
73780;SHT30;62093;37.614;15.072;2023-02-22T11:16:31;15.57;60.86
73780;SHT30;62093;37.614;15.072;2023-02-22T11:21:37;15.58;60.79
73780;SHT30;62093;37.614;15.072;2023-02-22T11:24:10;15.58;60.71
73780;SHT30;62093;37.614;15.072;2023-02-22T11:26:43;15.60;60.67
73780;SHT30;62093;37.614;15.072;2023-02-22T11:29:14;15.61;60.67
73780;SHT30;62093;37.614;15.072;2023-02-22T11:31:43;15.61;60.75
73780;SHT30;62093;37.614;15.072;2023-02-22T11:34:26;15.61;60.63
73780;SHT30;62093;37.614;15.072;2023-02-22T11:36:52;15.64;60.55
73780;SHT30;62093;37.614;15.072;2023-02-22T11:39:29;15.63;60.56
73780;SHT30;62093;37.614;15.072;2023-02-22T11:41:57;15.64;60.51
73780;SHT30;62093;37.614;15.072;2023-02-22T11:44:25;15.64;60.48
73780;SHT30;62093;37.614;15.072;2023-02-22T11:46:56;15.67;60.46
73780;SHT30;62093;37.614;15.072;2023-02-22T11:49:37;15.67;60.42
73780;SHT30;62093;37.614;15.072;2023-02-22T11:58:01;15.70;60.30
73780;SHT30;62093;37.614;15.072;2023-02-22T12:11:33;15.71;60.23
73780;SHT30;62093;37.614;15.072;2023-02-22T12:17:42;15.72;60.14
73780;SHT30;62093;37.614;15.072;2023-02-22T12:20:22;15.77;60.14
73780;SHT30;62093;37.614;15.072;2023-02-22T12:23:01;15.72;60.11
73780;SHT30;62093;37.614;15.072;2023-02-22T12:25:34;15.77;59.99
73780;SHT30;62093;37.614;15.072;2023-02-22T12:30:41;15.77;60.00
73780;SHT30;62093;37.614;15.072;2023-02-22T12:33:16;15.80;60.01
73780;SHT30;62093;37.614;15.072;2023-02-22T12:35:55;15.78;59.97
73780;SHT30;62093;37.614;15.072;2023-02-22T12:38:28;15.80;59.94
73780;SHT30;62093;37.614;15.072;2023-02-22T12:46:48;15.80;59.84
73780;SHT30;62093;37.614;15.072;2023-02-22T12:52:11;15.84;59.76
73780;SHT30;62093;37.614;15.072;2023-02-22T13:00:13;15.84;59.75
73780;SHT30;62093;37.614;15.072;2023-02-22T13:02:52;15.84;59.72
73780;SHT30;62093;37.614;15.072;2023-02-22T13:05:21;15.87;59.71
73780;SHT30;62093;37.614;15.072;2023-02-22T13:13:33;15.87;59.64
73780;SHT30;62093;37.614;15.072;2023-02-22T13:18:50;15.87;59.54
73780;SHT30;62093;37.614;15.072;2023-02-22T13:21:40;15.88;59.53
73780;SHT30;62093;37.614;15.072;2023-02-22T13:24:29;15.87;59.56
73780;SHT30;62093;37.614;15.072;2023-02-22T13:29:41;15.88;59.59
73780;SHT30;62093;37.614;15.072;2023-02-22T13:32:49;15.90;59.57
73780;SHT30;62093;37.614;15.072;2023-02-22T13:40:54;15.90;59.56
73780;SHT30;62093;37.614;15.072;2023-02-22T13:52:07;15.92;59.45
73780;SHT30;62093;37.614;15.072;2023-02-22T13:54:41;15.94;59.46
73780;SHT30;62093;37.614;15.072;2023-02-22T14:03:04;15.98;59.40
73780;SHT30;62093;37.614;15.072;2023-02-22T14:10:57;15.97;59.41
73780;SHT30;62093;37.614;15.072;2023-02-22T14:13:28;15.98;59.45
73780;SHT30;62093;37.614;15.072;2023-02-22T17:05:16;16.02;64.17
73780;SHT30;62093;37.614;15.072;2023-02-22T17:07:42;16.01;64.07
73780;SHT30;62093;37.614;15.072;2023-02-22T17:10:15;16.02;64.80
73780;SHT30;62093;37.614;15.072;2023-02-22T17:12:44;16.05;64.89
73780;SHT30;62093;37.614;15.072;2023-02-22T17:15:22;16.08;65.22
73780;SHT30;62093;37.614;15.072;2023-02-22T17:17:53;16.08;66.07
73780;SHT30;62093;37.614;15.072;2023-02-22T17:20:20;16.09;66.07
73780;SHT30;62093;37.614;15.072;2023-02-22T17:23:07;16.08;66.57
73780;SHT30;62093;37.614;15.072;2023-02-22T17:25:59;16.09;66.73
73780;SHT30;62093;37.614;15.072;2023-02-22T17:28:26;16.09;66.82
73780;SHT30;62093;37.614;15.072;2023-02-22T17:30:54;16.02;66.38
73780;SHT30;62093;37.614;15.072;2023-02-22T17:33:25;16.02;66.27
73780;SHT30;62093;37.614;15.072;2023-02-22T17:35:53;15.98;66.41
73780;SHT30;62093;37.614;15.072;2023-02-22T17:38:20;15.98;66.23
73780;SHT30;62093;37.614;15.072;2023-02-22T17:40:47;15.92;66.17
73780;SHT30;62093;37.614;15.072;2023-02-22T17:43:14;15.92;66.08
73780;SHT30;62093;37.614;15.072;2023-02-22T17:45:41;15.91;66.18
73780;SHT30;62093;37.614;15.072;2023-02-22T17:48:07;15.91;66.04
73780;SHT30;62093;37.614;15.072;2023-02-22T17:50:38;15.88;65.97
73780;SHT30;62093;37.614;15.072;2023-02-22T17:53:05;15.87;65.91
73780;SHT30;62093;37.614;15.072;2023-02-22T17:55:32;15.87;65.85
73780;SHT30;62093;37.614;15.072;2023-02-22T17:57:59;15.87;65.75
73780;SHT30;62093;37.614;15.072;2023-02-22T18:00:27;15.84;65.61
73780;SHT30;62093;37.614;15.072;2023-02-22T18:03:05;15.84;65.50
73780;SHT30;62093;37.614;15.072;2023-02-22T18:05:32;15.81;65.44
73780;SHT30;62093;37.614;15.072;2023-02-22T18:07:59;15.84;65.34
73780;SHT30;62093;37.614;15.072;2023-02-22T18:10:25;15.84;65.31
73780;SHT30;62093;37.614;15.072;2023-02-22T18:12:52;15.80;65.14
73780;SHT30;62093;37.614;15.072;2023-02-22T18:15:18;15.82;64.99
73780;SHT30;62093;37.614;15.072;2023-02-22T18:17:46;15.81;64.95
73780;SHT30;62093;37.614;15.072;2023-02-22T18:20:14;15.81;64.76
73780;SHT30;62093;37.614;15.072;2023-02-22T18:22:42;15.80;64.69
73780;SHT30;62093;37.614;15.072;2023-02-22T18:25:13;15.80;64.45
73780;SHT30;62093;37.614;15.072;2023-02-22T18:27:41;15.77;64.30
73780;SHT30;62093;37.614;15.072;2023-02-22T18:30:11;15.77;64.16
73780;SHT30;62093;37.614;15.072;2023-02-22T18:32:41;15.75;63.90
73780;SHT30;62093;37.614;15.072;2023-02-22T18:35:11;15.77;63.87
73780;SHT30;62093;37.614;15.072;2023-02-22T18:37:38;15.74;64.30
73780;SHT30;62093;37.614;15.072;2023-02-22T18:40:04;15.74;64.21
73780;SHT30;62093;37.614;15.072;2023-02-22T18:42:36;15.74;63.71
73780;SHT30;62093;37.614;15.072;2023-02-22T18:45:02;15.72;64.19
73780;SHT30;62093;37.614;15.072;2023-02-22T18:47:30;15.70;63.92
73780;SHT30;62093;37.614;15.072;2023-02-22T18:49:56;15.72;63.81
73780;SHT30;62093;37.614;15.072;2023-02-22T18:52:22;15.70;63.53
73780;SHT30;62093;37.614;15.072;2023-02-22T18:54:48;15.71;63.41
73780;SHT30;62093;37.614;15.072;2023-02-22T18:57:15;15.70;63.23
73780;SHT30;62093;37.614;15.072;2023-02-22T18:59:41;15.71;63.29
73780;SHT30;62093;37.614;15.072;2023-02-22T19:02:17;15.68;62.89
73780;SHT30;62093;37.614;15.072;2023-02-22T19:04:46;15.68;63.06
73780;SHT30;62093;37.614;15.072;2023-02-22T19:07:12;15.68;62.99
73780;SHT30;62093;37.614;15.072;2023-02-22T19:09:44;15.68;62.94
73780;SHT30;62093;37.614;15.072;2023-02-22T19:12:11;15.65;62.89
73780;SHT30;62093;37.614;15.072;2023-02-22T19:14:42;15.64;62.66
73780;SHT30;62093;37.614;15.072;2023-02-22T19:17:08;15.65;62.71
73780;SHT30;62093;37.614;15.072;2023-02-22T19:19:34;15.67;63.00
73780;SHT30;62093;37.614;15.072;2023-02-22T19:22:00;15.68;62.59
73780;SHT30;62093;37.614;15.072;2023-02-22T19:24:25;15.70;62.42
73780;SHT30;62093;37.614;15.072;2023-02-22T19:26:51;15.70;62.14
73780;SHT30;62093;37.614;15.072;2023-02-22T19:29:22;15.70;62.23
73780;SHT30;62093;37.614;15.072;2023-02-22T19:31:49;15.71;62.19
73780;SHT30;62093;37.614;15.072;2023-02-22T19:34:19;15.71;62.17
73780;SHT30;62093;37.614;15.072;2023-02-22T19:36:47;15.72;62.28
73780;SHT30;62093;37.614;15.072;2023-02-22T19:39:18;15.72;62.03
73780;SHT30;62093;37.614;15.072;2023-02-22T19:41:44;15.70;62.12
73780;SHT30;62093;37.614;15.072;2023-02-22T19:44:11;15.68;61.87
73780;SHT30;62093;37.614;15.072;2023-02-22T19:46:38;15.68;62.11
73780;SHT30;62093;37.614;15.072;2023-02-22T19:49:04;15.70;61.99
73780;SHT30;62093;37.614;15.072;2023-02-22T19:51:31;15.70;62.07
73780;SHT30;62093;37.614;15.072;2023-02-22T19:54:07;15.68;61.94
73780;SHT30;62093;37.614;15.072;2023-02-22T19:56:34;15.71;62.00
73780;SHT30;62093;37.614;15.072;2023-02-22T19:59:03;15.67;62.07
73780;SHT30;62093;37.614;15.072;2023-02-22T20:01:34;15.68;61.88
73780;SHT30;62093;37.614;15.072;2023-02-22T20:04:03;15.68;61.89
73780;SHT30;62093;37.614;15.072;2023-02-22T20:06:32;15.68;61.87
73780;SHT30;62093;37.614;15.072;2023-02-22T20:08:59;15.68;62.06
73780;SHT30;62093;37.614;15.072;2023-02-22T20:11:26;15.70;61.94
73780;SHT30;62093;37.614;15.072;2023-02-22T20:13:52;15.70;61.83
73780;SHT30;62093;37.614;15.072;2023-02-22T20:16:21;15.68;61.74
73780;SHT30;62093;37.614;15.072;2023-02-22T20:18:49;15.68;61.71
73780;SHT30;62093;37.614;15.072;2023-02-22T20:21:25;15.68;61.59
73780;SHT30;62093;37.614;15.072;2023-02-22T20:23:51;15.68;61.46
73780;SHT30;62093;37.614;15.072;2023-02-22T20:26:22;15.67;61.49
73780;SHT30;62093;37.614;15.072;2023-02-22T20:28:49;15.68;61.57
73780;SHT30;62093;37.614;15.072;2023-02-22T20:31:17;15.67;61.18